N77717 EDFB-EDFM
Flight info
| Callsign | N77717 |
|---|---|
| Flight time | 0h 21m |
| Altitude | 4000 |
| Route | VIA CTR CROSSING EDDF |
| Aircraft | SR22/L-V/N |
Departure
| Time | 2026-05-04 12:36 |
|---|---|
| Airport | Reichelsheim Airfield (EDFB) |
Arrival
| Time | 2026-05-04 12:58 |
|---|---|
| Airport | Mannheim-City Airport (EDFM) |
| Time | Latitude | Longitude | Altitude | Speed | Heading |
|---|---|---|---|---|---|
| 2026-05-04 12:30 | 50.33474 | 8.87671 | 400 ft | 0 kts | 291° |
| 2026-05-04 12:32 | 50.33472 | 8.87654 | 400 ft | 3 kts | 223° |
| 2026-05-04 12:32 | 50.33416 | 8.87746 | 400 ft | 8 kts | 114° |
| 2026-05-04 12:32 | 50.33387 | 8.87809 | 400 ft | 5 kts | 162° |
| 2026-05-04 12:33 | 50.33328 | 8.87815 | 400 ft | 13 kts | 179° |
| 2026-05-04 12:33 | 50.33292 | 8.87838 | 400 ft | 0 kts | 110° |
| 2026-05-04 12:34 | 50.33311 | 8.87896 | 400 ft | 6 kts | 1° |
| 2026-05-04 12:34 | 50.33321 | 8.87896 | 400 ft | 0 kts | 357° |
| 2026-05-04 12:34 | 50.33331 | 8.87895 | 400 ft | 14 kts | 357° |
| 2026-05-04 12:35 | 50.33646 | 8.87885 | 400 ft | 70 kts | 359° |
| 2026-05-04 12:35 | 50.34273 | 8.87869 | 496 ft | 99 kts | 355° |
| 2026-05-04 12:35 | 50.34945 | 8.87865 | 791 ft | 98 kts | 358° |
| 2026-05-04 12:35 | 50.35708 | 8.87866 | 843 ft | 124 kts | 358° |
| 2026-05-04 12:36 | 50.36436 | 8.88513 | 970 ft | 134 kts | 76° |
| 2026-05-04 12:36 | 50.36480 | 8.89995 | 1098 ft | 142 kts | 108° |
| 2026-05-04 12:36 | 50.35664 | 8.90547 | 1210 ft | 142 kts | 184° |
| 2026-05-04 12:36 | 50.34668 | 8.90291 | 1319 ft | 148 kts | 214° |
| 2026-05-04 12:37 | 50.33906 | 8.89212 | 1438 ft | 153 kts | 221° |
| 2026-05-04 12:37 | 50.33100 | 8.88104 | 1534 ft | 157 kts | 221° |
| 2026-05-04 12:37 | 50.32269 | 8.86961 | 1631 ft | 160 kts | 221° |
| 2026-05-04 12:37 | 50.31417 | 8.85789 | 1731 ft | 164 kts | 221° |
| 2026-05-04 12:38 | 50.30557 | 8.84605 | 1827 ft | 167 kts | 221° |
| 2026-05-04 12:38 | 50.29686 | 8.83404 | 1920 ft | 169 kts | 221° |
| 2026-05-04 12:38 | 50.28806 | 8.82189 | 2011 ft | 170 kts | 221° |
| 2026-05-04 12:38 | 50.27911 | 8.80954 | 2106 ft | 171 kts | 221° |
| 2026-05-04 12:39 | 50.27010 | 8.79709 | 2150 ft | 175 kts | 221° |
| 2026-05-04 12:39 | 50.26073 | 8.78415 | 2047 ft | 184 kts | 221° |
| 2026-05-04 12:39 | 50.25104 | 8.77079 | 1972 ft | 188 kts | 221° |
| 2026-05-04 12:39 | 50.24123 | 8.75729 | 1965 ft | 187 kts | 221° |
| 2026-05-04 12:40 | 50.23145 | 8.74385 | 1966 ft | 187 kts | 221° |
| 2026-05-04 12:40 | 50.22169 | 8.73039 | 1966 ft | 186 kts | 221° |
| 2026-05-04 12:40 | 50.21205 | 8.71707 | 1965 ft | 185 kts | 221° |
| 2026-05-04 12:40 | 50.20237 | 8.70377 | 1962 ft | 185 kts | 222° |
| 2026-05-04 12:41 | 50.19264 | 8.69046 | 1723 ft | 181 kts | 222° |
| 2026-05-04 12:41 | 50.18359 | 8.67838 | 1489 ft | 165 kts | 221° |
| 2026-05-04 12:41 | 50.17487 | 8.66664 | 1473 ft | 167 kts | 221° |
| 2026-05-04 12:41 | 50.16589 | 8.65438 | 1477 ft | 173 kts | 222° |
| 2026-05-04 12:42 | 50.15672 | 8.64197 | 1474 ft | 174 kts | 221° |
| 2026-05-04 12:42 | 50.14798 | 8.62949 | 1470 ft | 170 kts | 225° |
| 2026-05-04 12:42 | 50.13988 | 8.61627 | 1472 ft | 166 kts | 227° |
| 2026-05-04 12:42 | 50.13194 | 8.60330 | 1471 ft | 164 kts | 226° |
| 2026-05-04 12:43 | 50.12197 | 8.59560 | 1465 ft | 164 kts | 187° |
| 2026-05-04 12:43 | 50.11071 | 8.59584 | 1475 ft | 160 kts | 179° |
| 2026-05-04 12:43 | 50.10035 | 8.59693 | 1450 ft | 133 kts | 178° |
| 2026-05-04 12:43 | 50.09167 | 8.59805 | 1461 ft | 129 kts | 178° |
| 2026-05-04 12:44 | 50.08210 | 8.59915 | 1491 ft | 149 kts | 178° |
| 2026-05-04 12:44 | 50.07109 | 8.60026 | 1484 ft | 164 kts | 179° |
| 2026-05-04 12:44 | 50.05930 | 8.60143 | 1480 ft | 173 kts | 178° |
| 2026-05-04 12:44 | 50.04715 | 8.60266 | 1475 ft | 179 kts | 178° |
| 2026-05-04 12:45 | 50.03453 | 8.60370 | 1474 ft | 182 kts | 181° |
| 2026-05-04 12:45 | 50.02195 | 8.60332 | 1472 ft | 183 kts | 185° |
| 2026-05-04 12:45 | 50.00904 | 8.60208 | 1467 ft | 184 kts | 185° |
| 2026-05-04 12:45 | 49.99627 | 8.60077 | 1469 ft | 185 kts | 185° |
| 2026-05-04 12:46 | 49.98350 | 8.59950 | 1472 ft | 186 kts | 185° |
| 2026-05-04 12:46 | 49.97056 | 8.59824 | 1474 ft | 186 kts | 185° |
| 2026-05-04 12:46 | 49.95770 | 8.59687 | 1474 ft | 186 kts | 185° |
| 2026-05-04 12:46 | 49.94486 | 8.59554 | 1617 ft | 178 kts | 185° |
| 2026-05-04 12:47 | 49.93314 | 8.59432 | 1954 ft | 163 kts | 185° |
| 2026-05-04 12:47 | 49.92222 | 8.59320 | 2291 ft | 152 kts | 185° |
| 2026-05-04 12:47 | 49.91204 | 8.59222 | 2630 ft | 144 kts | 185° |
| 2026-05-04 12:47 | 49.90221 | 8.59132 | 2971 ft | 138 kts | 185° |
| 2026-05-04 12:48 | 49.89299 | 8.59053 | 3311 ft | 131 kts | 185° |
| 2026-05-04 12:48 | 49.88403 | 8.58981 | 3659 ft | 126 kts | 185° |
| 2026-05-04 12:48 | 49.87542 | 8.58907 | 3940 ft | 126 kts | 185° |
| 2026-05-04 12:48 | 49.86610 | 8.58815 | 3986 ft | 144 kts | 185° |
| 2026-05-04 12:49 | 49.85542 | 8.58703 | 3988 ft | 159 kts | 185° |
| 2026-05-04 12:49 | 49.84406 | 8.58582 | 3981 ft | 169 kts | 185° |
| 2026-05-04 12:49 | 49.83206 | 8.58456 | 3976 ft | 176 kts | 185° |
| 2026-05-04 12:49 | 49.81967 | 8.58326 | 3972 ft | 180 kts | 185° |
| 2026-05-04 12:50 | 49.80702 | 8.58193 | 3965 ft | 183 kts | 185° |
| 2026-05-04 12:50 | 49.79434 | 8.58059 | 3962 ft | 185 kts | 185° |
| 2026-05-04 12:50 | 49.78136 | 8.57924 | 3961 ft | 186 kts | 185° |
| 2026-05-04 12:50 | 49.76842 | 8.57787 | 3967 ft | 186 kts | 185° |
| 2026-05-04 12:51 | 49.75548 | 8.57652 | 3967 ft | 187 kts | 185° |
| 2026-05-04 12:51 | 49.74242 | 8.57519 | 3966 ft | 188 kts | 185° |
| 2026-05-04 12:51 | 49.72945 | 8.57391 | 3965 ft | 188 kts | 185° |
| 2026-05-04 12:51 | 49.71634 | 8.57263 | 3934 ft | 190 kts | 185° |
| 2026-05-04 12:52 | 49.70308 | 8.57130 | 3811 ft | 193 kts | 185° |
| 2026-05-04 12:52 | 49.68970 | 8.57002 | 3687 ft | 193 kts | 185° |
| 2026-05-04 12:52 | 49.67632 | 8.56877 | 3563 ft | 193 kts | 185° |
| 2026-05-04 12:52 | 49.66292 | 8.56752 | 3438 ft | 193 kts | 185° |
| 2026-05-04 12:53 | 49.64951 | 8.56630 | 3314 ft | 193 kts | 185° |
| 2026-05-04 12:53 | 49.63604 | 8.56514 | 3189 ft | 193 kts | 185° |
| 2026-05-04 12:53 | 49.62264 | 8.56396 | 3067 ft | 193 kts | 185° |
| 2026-05-04 12:53 | 49.60923 | 8.56279 | 2943 ft | 193 kts | 185° |
| 2026-05-04 12:54 | 49.59575 | 8.56158 | 2818 ft | 193 kts | 185° |
| 2026-05-04 12:54 | 49.58247 | 8.56038 | 2694 ft | 193 kts | 185° |
| 2026-05-04 12:54 | 49.56896 | 8.55916 | 2569 ft | 193 kts | 185° |
| 2026-05-04 12:54 | 49.55559 | 8.55881 | 2440 ft | 194 kts | 176° |
| 2026-05-04 12:55 | 49.54206 | 8.56127 | 2316 ft | 194 kts | 174° |
| 2026-05-04 12:55 | 49.52993 | 8.56369 | 2503 ft | 160 kts | 174° |
| 2026-05-04 12:55 | 49.51907 | 8.56591 | 2369 ft | 156 kts | 174° |
| 2026-05-04 12:55 | 49.50852 | 8.56804 | 2375 ft | 150 kts | 174° |
| 2026-05-04 12:56 | 49.49833 | 8.57006 | 2383 ft | 148 kts | 174° |
| 2026-05-04 12:56 | 49.48830 | 8.57154 | 2218 ft | 142 kts | 180° |
| 2026-05-04 12:56 | 49.48056 | 8.56403 | 1574 ft | 135 kts | 243° |
| 2026-05-04 12:56 | 49.47650 | 8.55178 | 1153 ft | 116 kts | 243° |
| 2026-05-04 12:57 | 49.47389 | 8.54143 | 848 ft | 96 kts | 249° |
| 2026-05-04 12:57 | 49.47245 | 8.53174 | 548 ft | 93 kts | 261° |
| 2026-05-04 12:57 | 49.47245 | 8.52194 | 347 ft | 93 kts | 271° |
| 2026-05-04 12:57 | 49.47274 | 8.51345 | 308 ft | 66 kts | 273° |
| 2026-05-04 12:58 | 49.47269 | 8.50959 | 308 ft | 13 kts | 197° |
| 2026-05-04 12:58 | 49.47234 | 8.51064 | 307 ft | 18 kts | 93° |
| 2026-05-04 12:58 | 49.47226 | 8.51219 | 307 ft | 11 kts | 95° |
| 2026-05-04 12:58 | 49.47224 | 8.51344 | 307 ft | 24 kts | 94° |
| 2026-05-04 12:59 | 49.47213 | 8.51582 | 308 ft | 21 kts | 96° |
| 2026-05-04 12:59 | 49.47206 | 8.51837 | 308 ft | 23 kts | 92° |
| 2026-05-04 12:59 | 49.47197 | 8.52018 | 309 ft | 15 kts | 94° |
| 2026-05-04 12:59 | 49.47241 | 8.52141 | 310 ft | 19 kts | 16° |
| 2026-05-04 13:00 | 49.47371 | 8.52157 | 311 ft | 9 kts | 1° |
| 2026-05-04 13:00 | 49.47400 | 8.52194 | 312 ft | 11 kts | 71° |
| 2026-05-04 13:00 | 49.47421 | 8.52216 | 312 ft | 0 kts | 7° |